createdAt,value
2017-05-23T00:00:09.920Z,17.04
2017-05-23T00:00:50.448Z,17.04
2017-05-23T00:01:30.953Z,17.04
2017-05-23T00:02:11.488Z,17.04
2017-05-23T00:02:52.028Z,17.04
2017-05-23T00:03:32.545Z,17.04
2017-05-23T00:04:13.060Z,17.04
2017-05-23T00:04:53.577Z,17.04
2017-05-23T00:05:34.119Z,17.04
2017-05-23T00:06:14.633Z,17.04
2017-05-23T00:06:55.163Z,17.04
2017-05-23T00:07:35.693Z,17.04
2017-05-23T00:08:16.207Z,17.04
2017-05-23T00:08:56.713Z,17.04
2017-05-23T00:09:37.238Z,17.04
2017-05-23T00:10:17.786Z,17.04
2017-05-23T00:10:58.300Z,17.04
2017-05-23T00:11:38.834Z,17.04
2017-05-23T00:12:19.389Z,17.04
2017-05-23T00:12:59.934Z,17.04
2017-05-23T00:13:40.456Z,17.04
2017-05-23T00:14:20.997Z,17.04
2017-05-23T00:15:01.517Z,17.04
2017-05-23T00:15:42.048Z,17.04
2017-05-23T00:16:22.569Z,17.04
2017-05-23T00:17:03.105Z,17.04
2017-05-23T00:17:43.637Z,17.04
2017-05-23T00:18:24.167Z,17.04
2017-05-23T00:19:04.700Z,17.04
2017-05-23T00:19:45.234Z,17.04
2017-05-23T00:20:25.767Z,17.04
2017-05-23T00:21:06.311Z,17.04
2017-05-23T00:21:46.845Z,17.04
2017-05-23T00:22:27.350Z,17.04
2017-05-23T00:23:07.901Z,17.04
2017-05-23T00:23:48.416Z,17.04
2017-05-23T00:24:28.934Z,17.04
2017-05-23T00:25:09.470Z,17.04
2017-05-23T00:25:51.007Z,17.04
2017-05-23T00:26:31.550Z,17.04
2017-05-23T00:27:12.094Z,17.04
2017-05-23T00:27:52.622Z,17.04
2017-05-23T00:28:33.147Z,17.04
2017-05-23T00:29:13.672Z,17.04
2017-05-23T00:29:54.252Z,17.04
2017-05-23T00:30:34.777Z,17.04
2017-05-23T00:31:15.328Z,17.04
2017-05-23T00:31:55.858Z,17.04
2017-05-23T00:32:36.410Z,17.04
2017-05-23T00:33:16.980Z,17.04
2017-05-23T00:33:57.529Z,17.04
2017-05-23T00:34:38.062Z,17.04
2017-05-23T00:35:18.576Z,17.04
2017-05-23T00:35:59.125Z,17.04
2017-05-23T00:36:39.666Z,17.04
2017-05-23T00:37:20.186Z,17.04
2017-05-23T00:38:00.713Z,17.04
2017-05-23T00:38:41.225Z,17.04
2017-05-23T00:39:21.736Z,17.04
2017-05-23T00:40:02.254Z,17.04
2017-05-23T00:40:42.763Z,17.04
2017-05-23T00:41:23.276Z,17.04
2017-05-23T00:42:03.825Z,17.04
2017-05-23T00:42:44.359Z,17.04
2017-05-23T00:43:24.874Z,17.04
2017-05-23T00:44:05.399Z,17.04
2017-05-23T00:44:45.927Z,17.04
2017-05-23T00:45:26.465Z,17.04
2017-05-23T00:46:06.972Z,17.04
2017-05-23T00:46:47.500Z,17.04
2017-05-23T00:47:28.039Z,17.04
2017-05-23T00:48:08.575Z,17.04
2017-05-23T00:48:49.109Z,17.04
2017-05-23T00:49:29.623Z,17.04
2017-05-23T00:50:10.157Z,17.04
2017-05-23T00:50:50.694Z,17.04
2017-05-23T00:51:31.217Z,17.04
2017-05-23T00:52:11.764Z,17.04
2017-05-23T00:52:52.292Z,17.04
2017-05-23T00:53:32.830Z,17.04
2017-05-23T00:54:13.450Z,17.04
2017-05-23T00:54:53.889Z,17.04
2017-05-23T00:55:34.428Z,17.04
2017-05-23T00:56:14.974Z,17.04
2017-05-23T00:56:55.475Z,17.04
2017-05-23T00:57:36.002Z,17.04
2017-05-23T00:58:16.540Z,17.04
2017-05-23T00:58:57.061Z,17.04
2017-05-23T00:59:37.605Z,17.04
2017-05-23T01:00:18.136Z,17.04
2017-05-23T01:00:58.677Z,17.04
2017-05-23T01:01:39.227Z,17.04
2017-05-23T01:02:19.737Z,17.04
2017-05-23T01:03:00.263Z,17.04
2017-05-23T01:03:40.788Z,17.04
2017-05-23T01:04:22.301Z,17.04
2017-05-23T01:05:02.835Z,17.04
2017-05-23T01:05:43.356Z,17.04
2017-05-23T01:06:23.888Z,17.04
2017-05-23T01:07:04.452Z,17.04
2017-05-23T01:07:44.989Z,17.04
2017-05-23T01:08:25.522Z,17.04
2017-05-23T01:09:06.071Z,17.04
2017-05-23T01:09:47.610Z,17.04
2017-05-23T01:10:28.221Z,17.04
2017-05-23T01:11:08.661Z,17.04
2017-05-23T01:11:49.196Z,17.04
2017-05-23T01:12:29.733Z,17.04
2017-05-23T01:13:10.251Z,17.04
2017-05-23T01:13:50.786Z,17.04
2017-05-23T01:14:31.324Z,17.04
2017-05-23T01:15:11.884Z,17.04
2017-05-23T01:15:52.362Z,17.04
2017-05-23T01:16:32.935Z,17.04
2017-05-23T01:17:13.460Z,17.04
2017-05-23T01:17:53.988Z,17.04
2017-05-23T01:18:34.501Z,17.04
2017-05-23T01:19:15.030Z,17.04
2017-05-23T01:19:55.542Z,17.04
2017-05-23T01:20:36.079Z,17.04
2017-05-23T01:21:16.618Z,17.04
2017-05-23T01:21:57.131Z,17.04
2017-05-23T01:22:37.689Z,17.04
2017-05-23T01:23:18.210Z,17.04
2017-05-23T01:23:58.747Z,17.04
2017-05-23T01:24:39.298Z,17.04
2017-05-23T01:25:19.841Z,17.04
2017-05-23T01:26:00.363Z,17.04
2017-05-23T01:26:40.912Z,17.04
2017-05-23T01:27:21.472Z,17.04
2017-05-23T01:28:01.977Z,17.04
2017-05-23T01:28:42.503Z,17.04
2017-05-23T01:29:24.048Z,17.04
2017-05-23T01:30:04.598Z,17.04
2017-05-23T01:30:45.107Z,17.04
2017-05-23T01:31:25.620Z,17.04
2017-05-23T01:32:06.168Z,17.04
2017-05-23T01:32:46.704Z,17.04
2017-05-23T01:33:27.224Z,17.04
2017-05-23T01:34:07.744Z,17.04
2017-05-23T01:34:48.267Z,17.04
2017-05-23T01:35:28.805Z,17.04
2017-05-23T01:36:09.354Z,17.04
2017-05-23T01:36:49.898Z,17.04
2017-05-23T01:37:30.447Z,17.04
2017-05-23T01:38:10.964Z,17.04
2017-05-23T01:38:51.511Z,17.04
2017-05-23T01:39:32.132Z,17.04
2017-05-23T01:40:12.613Z,17.04
2017-05-23T01:40:53.144Z,17.04
2017-05-23T01:41:33.687Z,17.04
2017-05-23T01:42:14.209Z,17.04
2017-05-23T01:42:54.751Z,17.04
2017-05-23T01:43:35.304Z,17.04
2017-05-23T01:44:15.904Z,17.04
2017-05-23T01:44:56.402Z,17.04
2017-05-23T01:45:36.951Z,17.04
2017-05-23T01:46:17.510Z,17.04
2017-05-23T01:46:58.061Z,17.04
2017-05-23T01:47:38.598Z,17.04
2017-05-23T01:48:20.147Z,17.04
2017-05-23T01:49:00.696Z,17.04
2017-05-23T01:49:41.243Z,17.04
2017-05-23T01:50:21.774Z,17.04
2017-05-23T01:51:02.320Z,17.04
2017-05-23T01:51:42.855Z,17.04
2017-05-23T01:52:24.403Z,17.04
2017-05-23T01:53:04.945Z,17.04
2017-05-23T01:53:46.480Z,17.04
2017-05-23T01:54:27.078Z,17.04
2017-05-23T01:55:07.650Z,17.04
2017-05-23T01:55:48.228Z,17.04
2017-05-23T01:56:28.813Z,17.04
2017-05-23T01:57:09.348Z,17.04
2017-05-23T01:57:49.881Z,17.04
2017-05-23T01:58:30.393Z,17.04
2017-05-23T01:59:10.921Z,17.04
2017-05-23T01:59:51.441Z,17.04
2017-05-23T02:00:31.973Z,17.04
2017-05-23T02:01:12.485Z,17.04
2017-05-23T02:01:53.044Z,17.04
2017-05-23T02:02:33.577Z,17.04
2017-05-23T02:03:14.133Z,17.04
2017-05-23T02:03:54.706Z,17.04
2017-05-23T02:04:35.251Z,17.04
2017-05-23T02:05:15.807Z,17.04
2017-05-23T02:05:56.370Z,17.04
2017-05-23T02:06:36.851Z,17.04
2017-05-23T02:07:17.387Z,17.04
2017-05-23T02:07:57.933Z,17.04
2017-05-23T02:08:38.547Z,17.04
2017-05-23T02:09:19.078Z,17.04
2017-05-23T02:09:59.701Z,17.04
2017-05-23T02:10:40.148Z,17.04
2017-05-23T02:11:20.702Z,17.04
2017-05-23T02:12:01.247Z,17.04
2017-05-23T02:12:41.800Z,17.04
2017-05-23T02:13:22.350Z,17.04
2017-05-23T02:14:02.879Z,17.04
2017-05-23T02:14:43.409Z,17.04
2017-05-23T02:15:23.968Z,17.04
2017-05-23T02:16:04.517Z,17.04
2017-05-23T02:16:45.094Z,17.04
2017-05-23T02:17:27.650Z,17.04
2017-05-23T02:18:25.151Z,17.04
2017-05-23T02:19:05.692Z,17.04
2017-05-23T02:19:46.196Z,17.04
2017-05-23T02:20:28.710Z,17.04
2017-05-23T02:21:09.237Z,17.04
2017-05-23T02:21:50.796Z,17.04
2017-05-23T02:22:47.967Z,17.04
2017-05-23T02:23:39.471Z,17.04
2017-05-23T02:24:20.994Z,17.04
2017-05-23T02:25:01.534Z,17.04
2017-05-23T02:25:43.053Z,17.04
2017-05-23T02:26:38.145Z,17.04
2017-05-23T02:27:18.669Z,17.04
2017-05-23T02:27:59.182Z,17.04
2017-05-23T02:28:51.649Z,17.04
2017-05-23T02:29:32.143Z,17.04
2017-05-23T02:30:13.711Z,17.04
2017-05-23T02:30:54.237Z,17.04
2017-05-23T02:31:34.757Z,17.04
2017-05-23T02:32:15.292Z,17.04
2017-05-23T02:33:00.649Z,17.04
2017-05-23T02:33:56.150Z,17.04
2017-05-23T02:34:42.652Z,17.04
2017-05-23T02:35:23.203Z,17.04
2017-05-23T02:36:03.699Z,17.04
2017-05-23T02:36:55.964Z,17.04
2017-05-23T02:37:38.481Z,17.04
2017-05-23T02:38:20.002Z,17.04
2017-05-23T02:39:00.544Z,17.04
2017-05-23T02:39:42.071Z,17.04
2017-05-23T02:40:22.574Z,17.04
2017-05-23T02:46:37.152Z,14.68
2017-05-23T02:47:17.761Z,14.68
2017-05-23T02:47:58.192Z,14.68
2017-05-23T02:48:38.756Z,14.68
2017-05-23T02:49:19.280Z,14.68
2017-05-23T02:49:59.826Z,14.68
2017-05-23T02:50:40.388Z,14.68
2017-05-23T02:51:20.905Z,14.68
2017-05-23T02:52:01.418Z,14.68
2017-05-23T02:52:41.958Z,14.68
2017-05-23T02:53:22.497Z,14.68
2017-05-23T02:54:03.024Z,14.68
2017-05-23T02:54:43.534Z,14.68
2017-05-23T02:55:24.078Z,14.68
2017-05-23T02:56:04.603Z,14.68
2017-05-23T02:56:45.094Z,14.68
2017-05-23T02:57:25.632Z,14.68
2017-05-23T02:58:06.176Z,14.68
2017-05-23T02:58:46.692Z,14.68
2017-05-23T02:59:27.209Z,14.68
2017-05-23T03:00:07.745Z,14.68
2017-05-23T03:00:48.247Z,14.68
2017-05-23T03:01:28.793Z,14.68
2017-05-23T03:02:09.386Z,14.68
2017-05-23T03:02:49.933Z,14.68
2017-05-23T03:03:30.468Z,14.68
2017-05-23T03:04:10.995Z,14.68
2017-05-23T03:04:51.526Z,14.68
2017-05-23T03:05:32.036Z,14.68
2017-05-23T03:06:12.585Z,14.68
2017-05-23T03:06:53.123Z,14.68
2017-05-23T03:07:33.652Z,14.68
2017-05-23T03:08:14.186Z,14.68
2017-05-23T03:08:54.707Z,14.68
2017-05-23T03:09:35.239Z,14.68
2017-05-23T03:10:15.767Z,14.68
2017-05-23T03:10:56.314Z,14.68
2017-05-23T03:11:36.858Z,14.68
2017-05-23T03:12:17.777Z,14.68
2017-05-23T03:12:58.312Z,14.68
2017-05-23T03:13:38.815Z,14.68
2017-05-23T03:14:19.357Z,14.68
2017-05-23T03:14:59.866Z,14.68
2017-05-23T03:15:40.442Z,14.68
2017-05-23T03:16:20.963Z,14.68
2017-05-23T03:17:01.510Z,14.68
2017-05-23T03:17:42.013Z,14.68
2017-05-23T03:18:22.533Z,14.68
2017-05-23T03:19:03.059Z,14.68
2017-05-23T03:19:43.559Z,14.68
2017-05-23T03:20:24.105Z,14.68
2017-05-23T03:21:04.661Z,14.68
2017-05-23T03:21:45.233Z,14.68
2017-05-23T03:22:25.789Z,14.68
2017-05-23T03:23:06.312Z,14.68
2017-05-23T03:23:46.845Z,14.68
2017-05-23T03:24:27.385Z,14.68
2017-05-23T03:25:07.900Z,14.68
2017-05-23T03:25:48.416Z,14.68
2017-05-23T03:26:28.924Z,14.68
2017-05-23T03:27:09.481Z,14.68
2017-05-23T03:27:50.020Z,14.68
2017-05-23T03:28:30.546Z,14.68
2017-05-23T03:29:11.050Z,14.68
2017-05-23T03:29:51.569Z,14.68
2017-05-23T03:30:32.170Z,14.68
2017-05-23T03:31:12.718Z,14.68
2017-05-23T03:31:53.253Z,14.68
2017-05-23T03:32:33.816Z,14.68
2017-05-23T03:33:14.338Z,14.68
2017-05-23T03:33:54.851Z,14.68
2017-05-23T03:34:35.415Z,14.68
2017-05-23T03:35:15.935Z,14.68
2017-05-23T03:35:56.447Z,14.68
2017-05-23T03:36:37.023Z,14.68
2017-05-23T03:37:17.471Z,14.68
2017-05-23T03:37:58.027Z,14.68
2017-05-23T03:38:38.580Z,14.68
2017-05-23T03:39:19.134Z,14.68
2017-05-23T03:39:59.667Z,14.68
2017-05-23T03:40:40.205Z,14.68
2017-05-23T03:41:20.726Z,14.68
2017-05-23T03:42:01.268Z,14.68
2017-05-23T03:42:41.798Z,14.68
2017-05-23T03:43:22.350Z,14.68
2017-05-23T03:44:02.884Z,14.68
2017-05-23T03:44:43.409Z,14.68
2017-05-23T03:45:23.934Z,14.68
2017-05-23T03:46:04.461Z,14.68
2017-05-23T03:46:44.979Z,14.68
2017-05-23T03:47:25.497Z,14.68
2017-05-23T03:48:06.082Z,14.68
2017-05-23T03:48:46.605Z,14.68
2017-05-23T03:49:27.132Z,14.68
2017-05-23T03:50:24.196Z,14.68
2017-05-23T03:51:04.698Z,14.68
2017-05-23T03:51:52.000Z,14.68
2017-05-23T03:52:32.506Z,14.68
2017-05-23T04:07:46.202Z,14.25
2017-05-23T04:08:26.730Z,14.25
2017-05-23T04:09:07.280Z,14.25
2017-05-23T04:09:47.811Z,14.25
2017-05-23T04:10:28.343Z,14.25
2017-05-23T04:11:08.873Z,14.25
2017-05-23T04:11:49.375Z,14.25
2017-05-23T04:12:29.914Z,14.25
2017-05-23T04:13:10.444Z,14.25
2017-05-23T04:13:50.991Z,14.25
2017-05-23T04:14:31.515Z,14.25
2017-05-23T04:15:12.039Z,14.25
2017-05-23T04:15:52.564Z,14.25
2017-05-23T04:16:33.073Z,14.25
2017-05-23T04:17:13.612Z,14.25
2017-05-23T04:17:54.163Z,14.25
2017-05-23T04:18:34.698Z,14.25
2017-05-23T04:19:15.235Z,14.25
2017-05-23T04:19:55.767Z,14.25
2017-05-23T04:20:36.303Z,14.25
2017-05-23T04:21:16.845Z,14.25
2017-05-23T04:21:57.395Z,14.25
2017-05-23T04:22:37.922Z,14.25
2017-05-23T04:23:18.447Z,14.25
2017-05-23T04:23:58.984Z,14.25
2017-05-23T04:24:39.498Z,14.25
2017-05-23T04:25:20.022Z,14.25
2017-05-23T04:26:00.554Z,14.25
2017-05-23T04:26:41.089Z,14.25
2017-05-23T04:27:21.610Z,14.25
2017-05-23T04:28:02.124Z,14.25
2017-05-23T04:28:42.679Z,14.25
2017-05-23T04:29:23.209Z,14.25
2017-05-23T04:30:03.735Z,14.25
2017-05-23T04:30:44.266Z,14.25
2017-05-23T04:31:24.798Z,14.25
2017-05-23T04:32:05.323Z,14.25
2017-05-23T04:32:45.852Z,14.25
2017-05-23T04:33:26.371Z,14.25
2017-05-23T04:34:06.902Z,14.25
2017-05-23T04:34:47.464Z,14.25
2017-05-23T04:35:27.989Z,14.25
2017-05-23T04:36:08.511Z,14.25
2017-05-23T04:36:50.052Z,14.25
2017-05-23T04:37:30.565Z,14.25
2017-05-23T04:38:11.081Z,14.25
2017-05-23T04:38:51.605Z,14.25
2017-05-23T04:39:32.164Z,14.25
2017-05-23T04:40:12.733Z,14.25
2017-05-23T04:40:53.271Z,14.25
2017-05-23T04:41:33.802Z,14.25
2017-05-23T04:42:14.324Z,14.25
2017-05-23T04:42:54.850Z,14.25
2017-05-23T04:43:35.417Z,14.25
2017-05-23T04:44:15.964Z,14.25
2017-05-23T04:44:56.495Z,14.25
2017-05-23T04:45:37.014Z,14.25
2017-05-23T04:46:17.555Z,14.25
2017-05-23T04:46:58.088Z,14.25
2017-05-23T04:47:38.640Z,14.25
2017-05-23T04:48:19.197Z,14.25
2017-05-23T04:48:59.739Z,14.25
2017-05-23T04:49:40.259Z,14.25
2017-05-23T04:50:20.823Z,14.25
2017-05-23T04:51:01.344Z,14.25
2017-05-23T04:51:41.872Z,14.25
2017-05-23T04:52:22.428Z,14.25
2017-05-23T04:53:02.941Z,14.25
2017-05-23T04:53:43.471Z,14.25
2017-05-23T04:54:23.996Z,14.25
2017-05-23T04:55:04.791Z,14.25
2017-05-23T04:55:45.328Z,14.25
2017-05-23T04:56:25.856Z,14.25
2017-05-23T04:57:06.373Z,14.25
2017-05-23T04:57:46.921Z,14.25
2017-05-23T04:58:27.428Z,14.25
2017-05-23T04:59:08.005Z,14.25
2017-05-23T04:59:48.514Z,14.25
2017-05-23T05:00:29.058Z,14.25
2017-05-23T05:01:09.584Z,14.25
2017-05-23T05:01:50.138Z,14.25
2017-05-23T05:02:30.678Z,14.25
2017-05-23T05:03:11.199Z,14.25
2017-05-23T05:03:51.730Z,14.25
2017-05-23T05:04:32.259Z,14.25
2017-05-23T05:05:27.790Z,14.25
2017-05-23T05:06:08.225Z,14.25
2017-05-23T05:06:49.767Z,14.25
2017-05-23T05:07:30.281Z,14.25
2017-05-23T05:08:11.802Z,14.25
2017-05-23T05:08:52.330Z,14.25
2017-05-23T05:09:32.861Z,14.25
2017-05-23T05:10:13.377Z,14.25
2017-05-23T05:10:54.889Z,14.25
2017-05-23T05:11:41.023Z,14.25
2017-05-23T05:12:22.572Z,14.25
2017-05-23T05:13:05.107Z,14.25
2017-05-23T05:13:57.520Z,14.25
2017-05-23T05:14:38.032Z,14.25
2017-05-23T05:15:19.566Z,14.25
2017-05-23T05:16:00.064Z,14.25
2017-05-23T05:16:40.578Z,14.25
2017-05-23T05:17:22.088Z,14.25
2017-05-23T05:18:02.672Z,14.25
2017-05-23T05:18:43.182Z,14.25
2017-05-23T05:19:34.513Z,14.25
2017-05-23T05:20:17.066Z,14.25
2017-05-23T05:20:57.577Z,14.25
2017-05-23T05:21:39.088Z,14.25
2017-05-23T05:22:20.613Z,14.25
2017-05-23T05:23:07.022Z,14.25
2017-05-23T05:23:47.560Z,14.25
2017-05-23T05:24:35.027Z,14.25
2017-05-23T05:25:21.524Z,14.25
2017-05-23T05:26:08.019Z,14.25
2017-05-23T05:26:48.569Z,14.25
2017-05-23T05:27:29.176Z,14.25
2017-05-23T05:28:11.602Z,14.25
2017-05-23T05:28:52.126Z,14.25
2017-05-23T05:29:32.669Z,14.25
2017-05-23T05:30:24.030Z,14.25
2017-05-23T05:31:04.558Z,14.25
2017-05-23T05:31:45.079Z,14.25
2017-05-23T05:32:25.719Z,14.25
2017-05-23T05:33:06.135Z,14.25
2017-05-23T05:33:46.657Z,14.25
2017-05-23T05:34:27.208Z,14.25
2017-05-23T05:35:07.763Z,14.25
2017-05-23T05:35:48.279Z,14.25
2017-05-23T05:36:28.842Z,14.25
2017-05-23T05:37:09.377Z,14.25
2017-05-23T05:37:49.897Z,14.25
2017-05-23T05:38:30.457Z,14.25
2017-05-23T05:39:11.011Z,14.25
2017-05-23T05:39:51.566Z,14.25
2017-05-23T05:40:32.080Z,14.25
2017-05-23T05:41:12.610Z,14.25
2017-05-23T05:41:53.158Z,14.25
2017-05-23T05:42:33.691Z,14.25
2017-05-23T05:43:14.235Z,14.25
2017-05-23T05:43:54.776Z,14.25
2017-05-23T05:44:35.307Z,14.25
2017-05-23T05:45:15.849Z,14.25
2017-05-23T05:45:56.382Z,14.25
2017-05-23T05:46:36.900Z,14.25
2017-05-23T05:47:17.434Z,14.25
2017-05-23T05:47:57.985Z,14.25
2017-05-23T05:48:38.536Z,14.25
2017-05-23T05:49:19.089Z,16.93
2017-05-23T05:49:59.607Z,16.94
2017-05-23T05:50:40.141Z,16.93
2017-05-23T05:51:20.662Z,16.97
2017-05-23T05:52:01.202Z,16.94
2017-05-23T05:52:41.715Z,17.02
2017-05-23T05:53:22.235Z,17.04
2017-05-23T05:54:02.789Z,17.14
2017-05-23T05:54:43.322Z,17.12
2017-05-23T05:55:23.870Z,17.15
2017-05-23T05:56:04.391Z,17.2
2017-05-23T05:56:44.920Z,17.24
2017-05-23T05:57:25.480Z,17.27
2017-05-23T05:58:06.017Z,17.22
2017-05-23T05:58:46.544Z,17.34
2017-05-23T05:59:27.079Z,17.34
2017-05-23T06:00:07.623Z,17.23
2017-05-23T06:00:48.184Z,17.29
2017-05-23T06:01:28.708Z,17.34
2017-05-23T06:02:09.240Z,17.38
2017-05-23T06:02:49.805Z,17.38
2017-05-23T06:03:30.342Z,17.36
2017-05-23T06:04:10.875Z,17.34
2017-05-23T06:04:51.408Z,17.36
2017-05-23T06:05:31.931Z,17.45
2017-05-23T06:06:12.468Z,17.42
2017-05-23T06:06:52.998Z,17.42
2017-05-23T06:07:33.512Z,17.51
2017-05-23T07:02:54.355Z,19.96
2017-05-23T07:03:34.863Z,19.96
2017-05-23T07:04:22.083Z,20.07
2017-05-23T07:05:03.594Z,20.14
2017-05-23T07:05:44.120Z,20.28
2017-05-23T07:06:29.609Z,20.34
2017-05-23T07:07:14.779Z,20.41
2017-05-23T07:07:55.288Z,20.34
2017-05-23T07:08:40.572Z,20.37
2017-05-23T07:09:22.148Z,20.41
2017-05-23T07:10:02.635Z,20.44
2017-05-23T07:10:43.138Z,20.4
2017-05-23T07:11:23.693Z,20.37
2017-05-23T07:12:04.188Z,20.36
2017-05-23T07:12:46.754Z,20.4
2017-05-23T07:13:27.268Z,20.43
2017-05-23T07:14:12.624Z,20.37
2017-05-23T07:14:54.398Z,20.58
2017-05-23T07:15:40.581Z,20.59
2017-05-23T07:16:26.079Z,20.59
2017-05-23T07:17:08.585Z,20.7
2017-05-23T07:17:50.284Z,20.74
2017-05-23T07:18:30.814Z,20.8
2017-05-23T07:19:13.394Z,20.85
2017-05-23T07:19:54.921Z,20.81
2017-05-23T07:20:35.436Z,20.92
2017-05-23T07:21:16.994Z,21.05
2017-05-23T07:22:08.091Z,21.05
2017-05-23T07:22:48.639Z,20.92
2017-05-23T07:23:45.111Z,20.81
2017-05-23T07:24:26.625Z,20.82
2017-05-23T07:25:23.318Z,20.7
2017-05-23T07:26:04.893Z,20.74
2017-05-23T07:26:50.137Z,20.63
2017-05-23T07:27:43.300Z,20.55
2017-05-23T07:28:23.848Z,20.48
2017-05-23T07:29:10.092Z,20.4
2017-05-23T07:29:52.624Z,20.4
2017-05-23T07:30:33.116Z,20.28
2017-05-23T07:31:13.673Z,20.21
2017-05-23T07:31:55.211Z,20.11
2017-05-23T07:32:35.800Z,20.16
2017-05-23T07:33:27.091Z,20.14
2017-05-23T07:34:19.417Z,20.1
2017-05-23T07:34:59.938Z,20.06
2017-05-23T07:35:40.485Z,20.09
2017-05-23T07:36:20.990Z,20.04
2017-05-23T07:37:16.395Z,20.14
2017-05-23T07:37:57.916Z,20.07
2017-05-23T07:38:38.450Z,20.14
2017-05-23T07:39:24.603Z,20.03
2017-05-23T07:40:11.901Z,20.07
2017-05-23T07:40:59.298Z,20.1
2017-05-23T07:41:39.855Z,20.11
2017-05-23T07:42:36.090Z,20.14
2017-05-23T07:43:17.618Z,20.14
2017-05-23T07:43:59.166Z,20.11
2017-05-23T07:44:46.603Z,20.28
2017-05-23T07:45:29.230Z,20.28
2017-05-23T07:46:09.737Z,20.24
2017-05-23T07:46:50.262Z,20.29
2017-05-23T07:47:30.786Z,20.44
2017-05-23T07:48:11.306Z,20.5
2017-05-23T07:48:51.840Z,20.51
2017-05-23T07:49:33.377Z,20.5
2017-05-23T07:50:13.917Z,20.52
2017-05-23T07:50:55.421Z,20.58
2017-05-23T07:51:40.879Z,20.7
2017-05-23T07:52:21.306Z,20.75
2017-05-23T07:53:01.876Z,20.81
2017-05-23T07:53:46.907Z,20.75
2017-05-23T07:54:34.301Z,20.95
2017-05-23T07:55:14.803Z,20.97
2017-05-23T07:55:56.345Z,21.06
2017-05-23T07:56:36.866Z,21.14
2017-05-23T07:57:17.389Z,21.2
2017-05-23T07:57:57.902Z,21.22
2017-05-23T07:58:40.435Z,21.35
2017-05-23T07:59:20.952Z,21.33
2017-05-23T08:00:07.315Z,21.5
2017-05-23T08:00:49.857Z,21.4
2017-05-23T08:01:37.294Z,21.43
2017-05-23T08:02:17.879Z,21.35
2017-05-23T08:03:00.365Z,21.32
2017-05-23T08:03:42.888Z,21.36
2017-05-23T08:04:24.435Z,21.35
2017-05-23T08:05:04.946Z,21.3
2017-05-23T08:05:46.472Z,21.32
2017-05-23T08:06:27.018Z,21.33
2017-05-23T08:07:07.527Z,21.29
2017-05-23T08:07:58.619Z,21.33
2017-05-23T08:08:39.129Z,59.49
2017-05-23T08:09:19.660Z,59.17
2017-05-23T08:10:00.181Z,59.33
2017-05-23T08:10:45.608Z,59.17
2017-05-23T08:11:32.413Z,59.33
2017-05-23T08:12:13.915Z,58.84
2017-05-23T08:12:54.466Z,58.84
2017-05-23T08:13:35.984Z,58.69
2017-05-23T08:14:21.294Z,58.84
2017-05-23T08:15:02.870Z,58.21
2017-05-23T08:15:43.373Z,58.06
2017-05-23T08:16:25.909Z,57.9
2017-05-23T08:17:06.411Z,58.37
2017-05-23T08:17:46.920Z,57.41
2017-05-23T08:18:28.426Z,57.58
2017-05-23T08:19:08.971Z,57.58
2017-05-23T08:19:51.488Z,21.69
2017-05-23T08:20:34.022Z,56.83
2017-05-23T08:21:14.523Z,56.67
2017-05-23T08:21:56.056Z,56.51
2017-05-23T08:22:38.571Z,56.67
2017-05-23T08:23:21.078Z,56.51
2017-05-23T08:24:02.596Z,56.51
2017-05-23T08:24:44.142Z,56.51
2017-05-23T08:25:25.702Z,57.3
2017-05-23T08:26:06.193Z,56.67
2017-05-23T08:26:46.716Z,56.99
2017-05-23T08:27:27.252Z,56.2
2017-05-23T08:28:07.888Z,56.36
2017-05-23T08:28:48.279Z,56.04
2017-05-23T08:29:28.858Z,55.72
2017-05-23T08:30:09.439Z,55.24
2017-05-23T08:30:49.962Z,55.24
2017-05-23T08:31:30.492Z,54.44
2017-05-23T08:32:11.016Z,54.13
2017-05-23T08:32:51.629Z,53.49
2017-05-23T08:33:32.137Z,53.18
2017-05-23T08:34:12.681Z,52.38
2017-05-23T08:34:53.247Z,52.06
2017-05-23T08:35:33.760Z,52.06
2017-05-23T08:36:14.281Z,52.22
2017-05-23T08:36:54.830Z,51.74
2017-05-23T08:37:35.367Z,51.11
2017-05-23T08:38:15.839Z,51.11
2017-05-23T08:38:56.360Z,50.31
2017-05-23T08:39:36.876Z,50.79
2017-05-23T08:40:17.385Z,49.99
2017-05-23T08:40:57.936Z,50.31
2017-05-23T08:41:38.516Z,50.63
2017-05-23T08:42:18.994Z,49.68
2017-05-23T08:42:59.564Z,49.2
2017-05-23T08:43:40.094Z,48.56
2017-05-23T08:44:20.619Z,48.24
2017-05-23T08:45:01.119Z,47.77
2017-05-23T08:45:41.641Z,47.77
2017-05-23T08:46:22.181Z,47.13
2017-05-23T08:47:02.716Z,46.81
2017-05-23T08:47:43.217Z,46.66
2017-05-23T08:48:23.725Z,46.81
2017-05-23T08:49:04.281Z,45.86
2017-05-23T08:49:44.814Z,45.7
2017-05-23T08:50:25.336Z,45.54
2017-05-23T08:51:05.862Z,46.01
2017-05-23T08:51:46.392Z,44.91
2017-05-23T08:52:26.979Z,45.38
2017-05-23T08:53:07.513Z,44.42
2017-05-23T08:53:48.042Z,43.79
2017-05-23T08:54:28.590Z,43.32
2017-05-23T08:55:09.100Z,43.64
2017-05-23T08:55:49.615Z,43.48
2017-05-23T08:56:30.206Z,43.48
2017-05-23T08:57:10.708Z,43.64
2017-05-23T08:57:51.233Z,43.15
2017-05-23T08:58:31.753Z,42.68
2017-05-23T08:59:12.266Z,42.52
2017-05-23T08:59:52.779Z,42.84
2017-05-23T09:00:33.316Z,41.72
2017-05-23T09:01:13.856Z,41.56
2017-05-23T09:01:54.405Z,42.36
2017-05-23T09:02:34.913Z,42.2
2017-05-23T09:03:15.457Z,41.56
2017-05-23T09:03:56.018Z,42.05
2017-05-23T09:04:36.532Z,41.56
2017-05-23T09:05:17.073Z,41.25
2017-05-23T09:05:57.608Z,41.09
2017-05-23T09:06:38.138Z,41.09
2017-05-23T09:07:18.663Z,41.25
2017-05-23T09:07:59.183Z,41.09
2017-05-23T09:08:39.747Z,41.41
2017-05-23T09:09:20.267Z,40.93
2017-05-23T09:10:00.793Z,40.46
2017-05-23T09:10:41.339Z,39.82
2017-05-23T09:11:21.868Z,39.5
2017-05-23T09:12:02.416Z,39.03
2017-05-23T09:12:42.922Z,38.86
2017-05-23T09:13:23.441Z,39.34
2017-05-23T09:14:03.986Z,38.86
2017-05-23T09:14:44.519Z,39.18
2017-05-23T09:15:25.032Z,39.34
2017-05-23T09:16:05.567Z,38.7
2017-05-23T09:16:46.097Z,38.23
2017-05-23T09:17:26.615Z,38.07
2017-05-23T09:18:07.161Z,38.23
2017-05-23T09:18:47.714Z,37.91
2017-05-23T09:19:28.244Z,36.95
2017-05-23T09:20:08.777Z,37.43
2017-05-23T09:20:49.351Z,37.27
2017-05-23T09:21:31.040Z,37.27
2017-05-23T09:22:11.570Z,36.95
2017-05-23T09:22:52.091Z,36.95
2017-05-23T09:23:32.593Z,37.11
2017-05-23T09:24:13.120Z,36.95
2017-05-23T09:24:53.643Z,37.27
2017-05-23T09:25:34.165Z,36.16
2017-05-23T09:26:14.693Z,36.95
2017-05-23T09:26:55.226Z,37.11
2017-05-23T09:27:35.789Z,36.16
2017-05-23T09:28:16.343Z,36.32
2017-05-23T09:28:56.894Z,36.32
2017-05-23T09:29:37.526Z,35.52
2017-05-23T09:30:17.951Z,35.21
2017-05-23T09:30:58.469Z,34.73
2017-05-23T09:31:39.002Z,35.05
2017-05-23T09:32:19.849Z,35.05
2017-05-23T09:33:00.401Z,35.37
2017-05-23T09:33:41.246Z,34.57
2017-05-23T09:34:22.042Z,34.09
2017-05-23T09:35:02.615Z,34.25
2017-05-23T09:35:43.140Z,35.37
2017-05-23T09:36:23.769Z,34.73
2017-05-23T09:37:04.320Z,34.89
2017-05-23T09:37:44.875Z,34.73
2017-05-23T09:38:25.455Z,34.73
2017-05-23T09:39:06.101Z,35.05
2017-05-23T09:39:46.744Z,34.73
2017-05-23T09:40:27.423Z,34.41
2017-05-23T09:41:08.037Z,34.09
2017-05-23T09:41:48.614Z,34.09
2017-05-23T09:42:29.252Z,35.21
2017-05-23T09:43:09.872Z,34.73
2017-05-23T09:43:50.386Z,35.05
2017-05-23T09:44:30.914Z,35.37
2017-05-23T09:45:11.525Z,35.05
2017-05-23T09:45:52.140Z,35.05
2017-05-23T09:46:32.677Z,35.05
2017-05-23T09:47:13.257Z,34.89
2017-05-23T09:47:53.835Z,34.73
2017-05-23T09:48:34.420Z,34.57
2017-05-23T09:49:14.928Z,34.73
2017-05-23T09:49:55.472Z,32.98
2017-05-23T09:50:36.027Z,33.3
2017-05-23T09:51:16.581Z,33.62
2017-05-23T09:51:57.256Z,33.93
2017-05-23T09:52:37.811Z,34.25
2017-05-23T09:53:18.408Z,32.82
2017-05-23T09:53:58.927Z,32.98
2017-05-23T09:54:39.609Z,32.66
2017-05-23T09:55:20.140Z,32.5
2017-05-23T09:56:00.758Z,32.82
2017-05-23T09:56:41.308Z,32.19
2017-05-23T09:57:21.867Z,31.7
2017-05-23T09:58:02.414Z,31.07
2017-05-23T09:58:43.027Z,30.91
2017-05-23T09:59:23.631Z,30.76
2017-05-23T10:00:04.222Z,30.44
2017-05-23T10:00:44.846Z,30.27
2017-05-23T10:01:26.425Z,30.27
2017-05-23T10:02:07.076Z,30.11
2017-05-23T10:02:47.673Z,29.64
2017-05-23T10:03:28.254Z,29.96
2017-05-23T10:04:08.794Z,30.6
2017-05-23T10:04:49.380Z,30.6
2017-05-23T10:05:29.957Z,30.11
2017-05-23T10:06:10.551Z,30.6